sensor_id;sensor_type;location;lat;lon;timestamp;P1;durP1;ratioP1;P2;durP2;ratioP2
10226;SDS011;15634;48.766;2.272;2024-02-28T00:01:48;7.95;;;4.20;;
10226;SDS011;15634;48.766;2.272;2024-02-28T00:04:14;9.13;;;4.00;;
10226;SDS011;15634;48.766;2.272;2024-02-28T00:06:40;9.15;;;3.50;;
10226;SDS011;15634;48.766;2.272;2024-02-28T00:09:06;7.82;;;3.63;;
10226;SDS011;15634;48.766;2.272;2024-02-28T00:11:32;8.90;;;4.03;;
10226;SDS011;15634;48.766;2.272;2024-02-28T00:13:58;9.63;;;3.75;;
10226;SDS011;15634;48.766;2.272;2024-02-28T00:16:27;8.60;;;3.60;;
10226;SDS011;15634;48.766;2.272;2024-02-28T00:18:53;9.55;;;3.83;;
10226;SDS011;15634;48.766;2.272;2024-02-28T00:21:19;6.82;;;4.20;;
10226;SDS011;15634;48.766;2.272;2024-02-28T00:23:45;6.15;;;3.50;;
10226;SDS011;15634;48.766;2.272;2024-02-28T00:26:14;7.05;;;3.70;;
10226;SDS011;15634;48.766;2.272;2024-02-28T00:28:40;8.32;;;3.75;;
10226;SDS011;15634;48.766;2.272;2024-02-28T00:31:06;10.13;;;3.90;;
10226;SDS011;15634;48.766;2.272;2024-02-28T00:33:32;8.60;;;3.75;;
10226;SDS011;15634;48.766;2.272;2024-02-28T00:35:58;10.88;;;3.67;;
10226;SDS011;15634;48.766;2.272;2024-02-28T00:38:24;6.70;;;3.60;;
10226;SDS011;15634;48.766;2.272;2024-02-28T00:40:50;11.77;;;3.90;;
10226;SDS011;15634;48.766;2.272;2024-02-28T00:43:16;10.65;;;3.58;;
10226;SDS011;15634;48.766;2.272;2024-02-28T00:45:42;11.23;;;4.05;;
10226;SDS011;15634;48.766;2.272;2024-02-28T00:48:09;8.90;;;3.95;;
10226;SDS011;15634;48.766;2.272;2024-02-28T00:50:35;7.88;;;3.58;;
10226;SDS011;15634;48.766;2.272;2024-02-28T00:53:01;8.85;;;3.88;;
10226;SDS011;15634;48.766;2.272;2024-02-28T00:55:27;6.25;;;3.65;;
10226;SDS011;15634;48.766;2.272;2024-02-28T00:57:53;9.45;;;3.70;;
10226;SDS011;15634;48.766;2.272;2024-02-28T01:00:19;14.23;;;4.20;;
10226;SDS011;15634;48.766;2.272;2024-02-28T01:02:45;7.18;;;3.83;;
10226;SDS011;15634;48.766;2.272;2024-02-28T01:05:11;8.13;;;3.55;;
10226;SDS011;15634;48.766;2.272;2024-02-28T01:07:37;8.98;;;3.88;;
10226;SDS011;15634;48.766;2.272;2024-02-28T01:10:03;8.55;;;4.32;;
10226;SDS011;15634;48.766;2.272;2024-02-28T01:12:29;10.70;;;4.00;;
10226;SDS011;15634;48.766;2.272;2024-02-28T01:14:55;10.00;;;4.10;;
10226;SDS011;15634;48.766;2.272;2024-02-28T01:17:21;10.95;;;4.00;;
10226;SDS011;15634;48.766;2.272;2024-02-28T01:19:47;9.80;;;4.03;;
10226;SDS011;15634;48.766;2.272;2024-02-28T01:22:13;12.40;;;4.18;;
10226;SDS011;15634;48.766;2.272;2024-02-28T01:24:39;8.85;;;4.22;;
10226;SDS011;15634;48.766;2.272;2024-02-28T01:27:05;8.45;;;4.00;;
10226;SDS011;15634;48.766;2.272;2024-02-28T01:29:31;13.25;;;4.38;;
10226;SDS011;15634;48.766;2.272;2024-02-28T01:31:57;7.20;;;3.92;;
10226;SDS011;15634;48.766;2.272;2024-02-28T01:34:23;10.10;;;4.80;;
10226;SDS011;15634;48.766;2.272;2024-02-28T01:36:49;9.85;;;4.50;;
10226;SDS011;15634;48.766;2.272;2024-02-28T01:39:15;9.43;;;4.28;;
10226;SDS011;15634;48.766;2.272;2024-02-28T01:41:41;8.38;;;4.53;;
10226;SDS011;15634;48.766;2.272;2024-02-28T01:44:08;12.23;;;4.78;;
10226;SDS011;15634;48.766;2.272;2024-02-28T01:46:34;8.25;;;4.30;;
10226;SDS011;15634;48.766;2.272;2024-02-28T01:49:00;12.57;;;5.05;;
10226;SDS011;15634;48.766;2.272;2024-02-28T01:51:26;9.50;;;5.07;;
10226;SDS011;15634;48.766;2.272;2024-02-28T01:53:52;14.73;;;5.30;;
10226;SDS011;15634;48.766;2.272;2024-02-28T01:56:20;7.88;;;4.57;;
10226;SDS011;15634;48.766;2.272;2024-02-28T01:58:47;11.63;;;4.50;;
10226;SDS011;15634;48.766;2.272;2024-02-28T02:01:14;8.15;;;4.15;;
10226;SDS011;15634;48.766;2.272;2024-02-28T02:03:40;12.40;;;4.85;;
10226;SDS011;15634;48.766;2.272;2024-02-28T02:06:06;9.02;;;4.68;;
10226;SDS011;15634;48.766;2.272;2024-02-28T02:08:32;8.35;;;4.85;;
10226;SDS011;15634;48.766;2.272;2024-02-28T02:10:59;9.35;;;4.70;;
10226;SDS011;15634;48.766;2.272;2024-02-28T02:13:25;9.73;;;5.03;;
10226;SDS011;15634;48.766;2.272;2024-02-28T02:15:51;10.15;;;4.95;;
10226;SDS011;15634;48.766;2.272;2024-02-28T02:18:16;12.25;;;4.60;;
10226;SDS011;15634;48.766;2.272;2024-02-28T02:20:43;8.18;;;4.38;;
10226;SDS011;15634;48.766;2.272;2024-02-28T02:23:11;12.75;;;4.68;;
10226;SDS011;15634;48.766;2.272;2024-02-28T02:25:47;6.70;;;4.07;;
10226;SDS011;15634;48.766;2.272;2024-02-28T02:28:13;9.50;;;4.88;;
10226;SDS011;15634;48.766;2.272;2024-02-28T02:30:40;7.35;;;4.18;;
10226;SDS011;15634;48.766;2.272;2024-02-28T02:33:06;10.27;;;4.60;;
10226;SDS011;15634;48.766;2.272;2024-02-28T02:35:33;7.65;;;4.35;;
10226;SDS011;15634;48.766;2.272;2024-02-28T02:37:59;9.65;;;5.00;;
10226;SDS011;15634;48.766;2.272;2024-02-28T02:40:25;9.07;;;4.32;;
10226;SDS011;15634;48.766;2.272;2024-02-28T02:42:51;14.18;;;4.60;;
10226;SDS011;15634;48.766;2.272;2024-02-28T02:45:17;13.82;;;5.28;;
10226;SDS011;15634;48.766;2.272;2024-02-28T02:47:43;17.88;;;5.07;;
10226;SDS011;15634;48.766;2.272;2024-02-28T02:50:09;13.45;;;4.82;;
10226;SDS011;15634;48.766;2.272;2024-02-28T02:52:35;11.65;;;4.68;;
10226;SDS011;15634;48.766;2.272;2024-02-28T02:55:01;12.68;;;4.90;;
10226;SDS011;15634;48.766;2.272;2024-02-28T02:57:27;11.35;;;5.03;;
10226;SDS011;15634;48.766;2.272;2024-02-28T02:59:55;9.35;;;4.65;;
10226;SDS011;15634;48.766;2.272;2024-02-28T03:02:21;8.73;;;4.57;;
10226;SDS011;15634;48.766;2.272;2024-02-28T03:04:47;11.10;;;5.05;;
10226;SDS011;15634;48.766;2.272;2024-02-28T03:07:13;10.18;;;4.75;;
10226;SDS011;15634;48.766;2.272;2024-02-28T03:09:39;7.97;;;4.95;;
10226;SDS011;15634;48.766;2.272;2024-02-28T03:12:06;13.88;;;5.30;;
10226;SDS011;15634;48.766;2.272;2024-02-28T03:14:32;11.02;;;4.95;;
10226;SDS011;15634;48.766;2.272;2024-02-28T03:16:58;11.05;;;5.50;;
10226;SDS011;15634;48.766;2.272;2024-02-28T03:19:24;11.02;;;5.57;;
10226;SDS011;15634;48.766;2.272;2024-02-28T03:21:50;9.23;;;5.20;;
10226;SDS011;15634;48.766;2.272;2024-02-28T03:24:16;8.70;;;4.97;;
10226;SDS011;15634;48.766;2.272;2024-02-28T03:26:42;8.15;;;4.93;;
10226;SDS011;15634;48.766;2.272;2024-02-28T03:29:09;13.90;;;5.32;;
10226;SDS011;15634;48.766;2.272;2024-02-28T03:31:35;11.95;;;6.20;;
10226;SDS011;15634;48.766;2.272;2024-02-28T03:34:00;11.27;;;5.90;;
10226;SDS011;15634;48.766;2.272;2024-02-28T03:36:27;12.18;;;6.10;;
10226;SDS011;15634;48.766;2.272;2024-02-28T03:38:53;13.45;;;6.38;;
10226;SDS011;15634;48.766;2.272;2024-02-28T03:41:19;17.98;;;7.55;;
10226;SDS011;15634;48.766;2.272;2024-02-28T03:43:45;15.57;;;7.10;;
10226;SDS011;15634;48.766;2.272;2024-02-28T03:46:11;13.45;;;6.82;;
10226;SDS011;15634;48.766;2.272;2024-02-28T03:48:37;14.63;;;6.28;;
10226;SDS011;15634;48.766;2.272;2024-02-28T03:51:03;11.55;;;5.50;;
10226;SDS011;15634;48.766;2.272;2024-02-28T03:53:30;15.05;;;6.22;;
10226;SDS011;15634;48.766;2.272;2024-02-28T03:55:56;17.58;;;6.45;;
10226;SDS011;15634;48.766;2.272;2024-02-28T03:58:22;14.52;;;6.28;;
10226;SDS011;15634;48.766;2.272;2024-02-28T04:00:48;9.70;;;6.00;;
10226;SDS011;15634;48.766;2.272;2024-02-28T04:03:14;20.23;;;7.22;;
10226;SDS011;15634;48.766;2.272;2024-02-28T04:05:40;15.63;;;6.90;;
10226;SDS011;15634;48.766;2.272;2024-02-28T04:08:07;10.30;;;6.40;;
10226;SDS011;15634;48.766;2.272;2024-02-28T04:10:33;12.63;;;6.72;;
10226;SDS011;15634;48.766;2.272;2024-02-28T04:12:59;13.00;;;6.95;;
10226;SDS011;15634;48.766;2.272;2024-02-28T04:15:25;13.40;;;7.40;;
10226;SDS011;15634;48.766;2.272;2024-02-28T04:17:51;12.73;;;6.93;;
10226;SDS011;15634;48.766;2.272;2024-02-28T04:20:17;12.93;;;7.00;;
10226;SDS011;15634;48.766;2.272;2024-02-28T04:22:43;13.75;;;7.13;;
10226;SDS011;15634;48.766;2.272;2024-02-28T04:25:09;13.05;;;6.85;;
10226;SDS011;15634;48.766;2.272;2024-02-28T04:27:36;12.98;;;7.38;;
10226;SDS011;15634;48.766;2.272;2024-02-28T04:30:02;15.82;;;7.50;;
10226;SDS011;15634;48.766;2.272;2024-02-28T04:32:29;14.90;;;6.97;;
10226;SDS011;15634;48.766;2.272;2024-02-28T04:34:54;13.20;;;6.88;;
10226;SDS011;15634;48.766;2.272;2024-02-28T04:37:21;15.88;;;7.45;;
10226;SDS011;15634;48.766;2.272;2024-02-28T04:39:47;15.68;;;6.93;;
10226;SDS011;15634;48.766;2.272;2024-02-28T04:42:13;16.02;;;7.10;;
10226;SDS011;15634;48.766;2.272;2024-02-28T04:44:41;15.93;;;7.70;;
10226;SDS011;15634;48.766;2.272;2024-02-28T04:47:07;17.08;;;8.20;;
10226;SDS011;15634;48.766;2.272;2024-02-28T04:49:36;13.40;;;7.82;;
10226;SDS011;15634;48.766;2.272;2024-02-28T04:52:03;15.10;;;7.43;;
10226;SDS011;15634;48.766;2.272;2024-02-28T04:54:29;14.80;;;7.72;;
10226;SDS011;15634;48.766;2.272;2024-02-28T04:56:55;19.45;;;8.55;;
10226;SDS011;15634;48.766;2.272;2024-02-28T04:59:20;13.52;;;7.10;;
10226;SDS011;15634;48.766;2.272;2024-02-28T05:01:46;14.75;;;6.90;;
10226;SDS011;15634;48.766;2.272;2024-02-28T05:04:13;17.98;;;7.25;;
10226;SDS011;15634;48.766;2.272;2024-02-28T05:06:39;15.38;;;7.63;;
10226;SDS011;15634;48.766;2.272;2024-02-28T05:09:05;16.20;;;7.93;;
10226;SDS011;15634;48.766;2.272;2024-02-28T05:11:31;18.92;;;8.48;;
10226;SDS011;15634;48.766;2.272;2024-02-28T05:13:57;13.80;;;8.13;;
10226;SDS011;15634;48.766;2.272;2024-02-28T05:16:23;15.75;;;8.40;;
10226;SDS011;15634;48.766;2.272;2024-02-28T05:18:49;19.92;;;8.43;;
10226;SDS011;15634;48.766;2.272;2024-02-28T05:21:15;14.20;;;7.88;;
10226;SDS011;15634;48.766;2.272;2024-02-28T05:23:41;14.85;;;8.32;;
10226;SDS011;15634;48.766;2.272;2024-02-28T05:26:07;19.77;;;8.55;;
10226;SDS011;15634;48.766;2.272;2024-02-28T05:28:33;14.32;;;8.48;;
10226;SDS011;15634;48.766;2.272;2024-02-28T05:31:24;19.88;;;8.48;;
10226;SDS011;15634;48.766;2.272;2024-02-28T05:33:51;18.20;;;8.95;;
10226;SDS011;15634;48.766;2.272;2024-02-28T05:36:17;14.43;;;8.30;;
10226;SDS011;15634;48.766;2.272;2024-02-28T05:38:43;18.15;;;9.00;;
10226;SDS011;15634;48.766;2.272;2024-02-28T05:41:09;17.40;;;9.20;;
10226;SDS011;15634;48.766;2.272;2024-02-28T05:43:38;16.83;;;9.50;;
10226;SDS011;15634;48.766;2.272;2024-02-28T05:46:05;18.52;;;9.05;;
10226;SDS011;15634;48.766;2.272;2024-02-28T05:48:31;21.55;;;9.95;;
10226;SDS011;15634;48.766;2.272;2024-02-28T05:50:57;19.02;;;9.80;;
10226;SDS011;15634;48.766;2.272;2024-02-28T05:53:23;17.30;;;9.90;;
10226;SDS011;15634;48.766;2.272;2024-02-28T05:55:52;22.35;;;10.13;;
10226;SDS011;15634;48.766;2.272;2024-02-28T05:58:18;19.73;;;10.40;;
10226;SDS011;15634;48.766;2.272;2024-02-28T06:00:45;19.60;;;10.35;;
10226;SDS011;15634;48.766;2.272;2024-02-28T06:03:10;24.63;;;11.00;;
10226;SDS011;15634;48.766;2.272;2024-02-28T06:05:36;18.05;;;9.35;;
10226;SDS011;15634;48.766;2.272;2024-02-28T06:08:02;20.00;;;9.55;;
10226;SDS011;15634;48.766;2.272;2024-02-28T06:10:29;20.10;;;9.85;;
10226;SDS011;15634;48.766;2.272;2024-02-28T06:12:55;17.73;;;10.00;;
10226;SDS011;15634;48.766;2.272;2024-02-28T06:15:21;25.77;;;10.02;;
10226;SDS011;15634;48.766;2.272;2024-02-28T06:17:47;23.27;;;10.30;;
10226;SDS011;15634;48.766;2.272;2024-02-28T06:20:13;17.73;;;9.77;;
10226;SDS011;15634;48.766;2.272;2024-02-28T06:22:39;21.30;;;9.63;;
10226;SDS011;15634;48.766;2.272;2024-02-28T06:25:05;19.92;;;9.90;;
10226;SDS011;15634;48.766;2.272;2024-02-28T06:27:36;22.23;;;10.00;;
10226;SDS011;15634;48.766;2.272;2024-02-28T06:30:02;20.98;;;10.43;;
10226;SDS011;15634;48.766;2.272;2024-02-28T06:32:28;20.33;;;9.68;;
10226;SDS011;15634;48.766;2.272;2024-02-28T06:34:54;19.80;;;9.18;;
10226;SDS011;15634;48.766;2.272;2024-02-28T06:37:19;22.85;;;10.10;;
10226;SDS011;15634;48.766;2.272;2024-02-28T06:39:45;19.25;;;9.85;;
10226;SDS011;15634;48.766;2.272;2024-02-28T06:42:10;21.02;;;10.32;;
10226;SDS011;15634;48.766;2.272;2024-02-28T06:44:36;23.90;;;10.30;;
10226;SDS011;15634;48.766;2.272;2024-02-28T06:47:02;20.40;;;9.90;;
10226;SDS011;15634;48.766;2.272;2024-02-28T06:49:27;20.48;;;10.60;;
10226;SDS011;15634;48.766;2.272;2024-02-28T06:51:53;19.30;;;11.30;;
10226;SDS011;15634;48.766;2.272;2024-02-28T06:54:20;22.23;;;10.38;;
10226;SDS011;15634;48.766;2.272;2024-02-28T06:56:46;19.85;;;9.70;;
10226;SDS011;15634;48.766;2.272;2024-02-28T06:59:12;24.35;;;9.82;;
10226;SDS011;15634;48.766;2.272;2024-02-28T07:01:38;21.80;;;9.93;;
10226;SDS011;15634;48.766;2.272;2024-02-28T07:04:03;17.08;;;9.18;;
10226;SDS011;15634;48.766;2.272;2024-02-28T07:06:29;22.50;;;9.85;;
10226;SDS011;15634;48.766;2.272;2024-02-28T07:08:55;20.52;;;10.00;;
10226;SDS011;15634;48.766;2.272;2024-02-28T07:11:22;21.13;;;9.88;;
10226;SDS011;15634;48.766;2.272;2024-02-28T07:13:48;24.13;;;9.93;;
10226;SDS011;15634;48.766;2.272;2024-02-28T07:16:14;19.05;;;9.80;;
10226;SDS011;15634;48.766;2.272;2024-02-28T07:18:40;17.42;;;10.48;;
10226;SDS011;15634;48.766;2.272;2024-02-28T07:21:06;23.02;;;10.32;;
10226;SDS011;15634;48.766;2.272;2024-02-28T07:23:32;23.70;;;10.63;;
10226;SDS011;15634;48.766;2.272;2024-02-28T07:25:58;19.00;;;10.38;;
10226;SDS011;15634;48.766;2.272;2024-02-28T07:28:24;20.67;;;10.27;;
10226;SDS011;15634;48.766;2.272;2024-02-28T07:30:50;18.85;;;10.65;;
10226;SDS011;15634;48.766;2.272;2024-02-28T07:33:16;15.95;;;10.57;;
10226;SDS011;15634;48.766;2.272;2024-02-28T07:35:48;22.90;;;11.32;;
10226;SDS011;15634;48.766;2.272;2024-02-28T07:38:17;25.40;;;11.30;;
10226;SDS011;15634;48.766;2.272;2024-02-28T07:40:45;19.35;;;10.73;;
10226;SDS011;15634;48.766;2.272;2024-02-28T07:43:11;21.23;;;11.50;;
10226;SDS011;15634;48.766;2.272;2024-02-28T07:45:37;25.92;;;11.02;;
10226;SDS011;15634;48.766;2.272;2024-02-28T07:48:03;18.52;;;10.15;;
10226;SDS011;15634;48.766;2.272;2024-02-28T07:50:29;20.52;;;10.57;;
10226;SDS011;15634;48.766;2.272;2024-02-28T07:52:55;23.63;;;9.63;;
10226;SDS011;15634;48.766;2.272;2024-02-28T07:55:21;17.52;;;9.95;;
10226;SDS011;15634;48.766;2.272;2024-02-28T07:57:50;17.52;;;9.60;;
10226;SDS011;15634;48.766;2.272;2024-02-28T08:00:19;19.67;;;9.55;;
10226;SDS011;15634;48.766;2.272;2024-02-28T08:02:45;19.60;;;10.27;;
10226;SDS011;15634;48.766;2.272;2024-02-28T08:05:12;16.05;;;9.80;;
10226;SDS011;15634;48.766;2.272;2024-02-28T08:07:39;19.33;;;10.63;;
10226;SDS011;15634;48.766;2.272;2024-02-28T08:10:06;18.85;;;10.23;;
10226;SDS011;15634;48.766;2.272;2024-02-28T08:12:32;18.88;;;10.35;;
10226;SDS011;15634;48.766;2.272;2024-02-28T08:14:58;19.50;;;10.20;;
10226;SDS011;15634;48.766;2.272;2024-02-28T08:17:24;23.55;;;10.32;;
10226;SDS011;15634;48.766;2.272;2024-02-28T08:19:50;21.95;;;9.95;;
10226;SDS011;15634;48.766;2.272;2024-02-28T08:22:16;19.88;;;10.20;;
10226;SDS011;15634;48.766;2.272;2024-02-28T08:24:41;19.80;;;9.90;;
10226;SDS011;15634;48.766;2.272;2024-02-28T08:27:07;17.75;;;9.82;;
10226;SDS011;15634;48.766;2.272;2024-02-28T08:29:33;17.67;;;9.88;;
10226;SDS011;15634;48.766;2.272;2024-02-28T08:32:00;16.50;;;9.65;;
10226;SDS011;15634;48.766;2.272;2024-02-28T08:34:28;21.13;;;10.32;;
10226;SDS011;15634;48.766;2.272;2024-02-28T08:36:53;17.00;;;9.95;;
10226;SDS011;15634;48.766;2.272;2024-02-28T08:39:19;18.52;;;10.15;;
10226;SDS011;15634;48.766;2.272;2024-02-28T08:41:45;24.17;;;11.25;;
10226;SDS011;15634;48.766;2.272;2024-02-28T08:44:11;22.92;;;11.43;;
10226;SDS011;15634;48.766;2.272;2024-02-28T08:46:37;18.98;;;10.68;;
10226;SDS011;15634;48.766;2.272;2024-02-28T08:49:03;19.90;;;11.13;;
10226;SDS011;15634;48.766;2.272;2024-02-28T08:51:29;23.25;;;10.13;;
10226;SDS011;15634;48.766;2.272;2024-02-28T08:53:55;21.80;;;10.48;;
10226;SDS011;15634;48.766;2.272;2024-02-28T08:56:22;20.05;;;10.18;;
10226;SDS011;15634;48.766;2.272;2024-02-28T08:58:48;20.52;;;10.57;;
10226;SDS011;15634;48.766;2.272;2024-02-28T09:01:14;17.25;;;9.65;;
10226;SDS011;15634;48.766;2.272;2024-02-28T09:03:40;21.35;;;10.45;;
10226;SDS011;15634;48.766;2.272;2024-02-28T09:06:06;21.42;;;11.15;;
10226;SDS011;15634;48.766;2.272;2024-02-28T09:08:32;21.85;;;11.35;;
10226;SDS011;15634;48.766;2.272;2024-02-28T09:10:58;21.95;;;11.57;;
10226;SDS011;15634;48.766;2.272;2024-02-28T09:13:25;18.17;;;10.30;;
10226;SDS011;15634;48.766;2.272;2024-02-28T09:15:52;16.90;;;9.82;;
10226;SDS011;15634;48.766;2.272;2024-02-28T09:18:18;20.52;;;11.15;;
10226;SDS011;15634;48.766;2.272;2024-02-28T09:20:44;16.52;;;10.20;;
10226;SDS011;15634;48.766;2.272;2024-02-28T09:23:10;14.88;;;7.88;;
10226;SDS011;15634;48.766;2.272;2024-02-28T09:25:36;15.40;;;7.75;;
10226;SDS011;15634;48.766;2.272;2024-02-28T09:28:02;13.05;;;7.25;;
10226;SDS011;15634;48.766;2.272;2024-02-28T09:30:28;10.52;;;7.05;;
10226;SDS011;15634;48.766;2.272;2024-02-28T09:32:54;14.45;;;7.05;;
10226;SDS011;15634;48.766;2.272;2024-02-28T09:35:20;11.07;;;5.88;;
10226;SDS011;15634;48.766;2.272;2024-02-28T09:37:46;9.93;;;6.47;;
10226;SDS011;15634;48.766;2.272;2024-02-28T09:40:12;14.13;;;6.25;;
10226;SDS011;15634;48.766;2.272;2024-02-28T09:42:38;15.02;;;5.80;;
10226;SDS011;15634;48.766;2.272;2024-02-28T09:45:04;14.18;;;4.80;;
10226;SDS011;15634;48.766;2.272;2024-02-28T09:47:34;10.85;;;4.60;;
10226;SDS011;15634;48.766;2.272;2024-02-28T09:49:59;8.13;;;3.70;;
10226;SDS011;15634;48.766;2.272;2024-02-28T09:52:25;5.82;;;4.03;;
10226;SDS011;15634;48.766;2.272;2024-02-28T09:54:52;11.02;;;4.20;;
10226;SDS011;15634;48.766;2.272;2024-02-28T09:57:18;9.50;;;4.10;;
10226;SDS011;15634;48.766;2.272;2024-02-28T09:59:45;6.38;;;3.88;;
10226;SDS011;15634;48.766;2.272;2024-02-28T10:02:12;9.95;;;3.80;;
10226;SDS011;15634;48.766;2.272;2024-02-28T10:04:40;5.85;;;3.88;;
10226;SDS011;15634;48.766;2.272;2024-02-28T10:07:10;5.18;;;3.20;;
10226;SDS011;15634;48.766;2.272;2024-02-28T10:09:38;6.70;;;2.83;;
10226;SDS011;15634;48.766;2.272;2024-02-28T10:12:04;8.13;;;3.85;;
10226;SDS011;15634;48.766;2.272;2024-02-28T10:14:30;10.57;;;4.45;;
10226;SDS011;15634;48.766;2.272;2024-02-28T10:16:56;8.52;;;4.25;;
10226;SDS011;15634;48.766;2.272;2024-02-28T10:19:22;10.88;;;5.88;;
10226;SDS011;15634;48.766;2.272;2024-02-28T10:21:50;8.95;;;4.47;;
10226;SDS011;15634;48.766;2.272;2024-02-28T10:24:16;9.48;;;4.18;;
10226;SDS011;15634;48.766;2.272;2024-02-28T10:26:45;8.68;;;4.78;;
10226;SDS011;15634;48.766;2.272;2024-02-28T10:29:23;9.90;;;4.18;;
10226;SDS011;15634;48.766;2.272;2024-02-28T10:31:49;6.18;;;4.40;;
10226;SDS011;15634;48.766;2.272;2024-02-28T10:34:16;8.68;;;3.88;;
10226;SDS011;15634;48.766;2.272;2024-02-28T10:36:43;9.93;;;4.00;;
10226;SDS011;15634;48.766;2.272;2024-02-28T10:39:10;8.18;;;3.80;;
10226;SDS011;15634;48.766;2.272;2024-02-28T10:41:40;6.85;;;3.65;;
10226;SDS011;15634;48.766;2.272;2024-02-28T10:44:07;5.95;;;3.05;;
10226;SDS011;15634;48.766;2.272;2024-02-28T10:46:33;7.45;;;2.92;;
10226;SDS011;15634;48.766;2.272;2024-02-28T10:49:00;10.93;;;3.15;;
10226;SDS011;15634;48.766;2.272;2024-02-28T10:51:26;6.35;;;2.80;;
10226;SDS011;15634;48.766;2.272;2024-02-28T10:54:00;5.80;;;2.58;;
10226;SDS011;15634;48.766;2.272;2024-02-28T10:56:33;10.32;;;3.15;;
10226;SDS011;15634;48.766;2.272;2024-02-28T10:59:00;6.57;;;2.67;;
10226;SDS011;15634;48.766;2.272;2024-02-28T11:01:27;7.00;;;2.67;;
10226;SDS011;15634;48.766;2.272;2024-02-28T11:03:53;7.10;;;2.70;;
10226;SDS011;15634;48.766;2.272;2024-02-28T11:06:21;4.60;;;2.65;;
10226;SDS011;15634;48.766;2.272;2024-02-28T11:08:49;6.57;;;3.13;;
10226;SDS011;15634;48.766;2.272;2024-02-28T11:11:19;7.20;;;2.97;;
10226;SDS011;15634;48.766;2.272;2024-02-28T11:13:52;5.70;;;2.70;;
10226;SDS011;15634;48.766;2.272;2024-02-28T11:16:25;5.00;;;2.80;;
10226;SDS011;15634;48.766;2.272;2024-02-28T11:18:52;9.80;;;3.75;;
10226;SDS011;15634;48.766;2.272;2024-02-28T11:21:18;5.07;;;2.80;;
10226;SDS011;15634;48.766;2.272;2024-02-28T11:23:47;6.80;;;3.08;;
10226;SDS011;15634;48.766;2.272;2024-02-28T11:26:14;5.32;;;2.90;;
10226;SDS011;15634;48.766;2.272;2024-02-28T11:28:40;6.15;;;2.92;;
10226;SDS011;15634;48.766;2.272;2024-02-28T11:31:06;7.45;;;3.03;;
10226;SDS011;15634;48.766;2.272;2024-02-28T11:33:33;3.60;;;2.45;;
10226;SDS011;15634;48.766;2.272;2024-02-28T11:35:59;6.13;;;2.90;;
10226;SDS011;15634;48.766;2.272;2024-02-28T11:38:25;6.75;;;2.50;;
10226;SDS011;15634;48.766;2.272;2024-02-28T11:40:52;5.80;;;2.92;;
10226;SDS011;15634;48.766;2.272;2024-02-28T11:43:20;7.40;;;3.08;;
10226;SDS011;15634;48.766;2.272;2024-02-28T11:45:46;5.68;;;2.72;;
10226;SDS011;15634;48.766;2.272;2024-02-28T11:48:12;5.22;;;2.22;;
10226;SDS011;15634;48.766;2.272;2024-02-28T11:50:39;8.63;;;2.75;;
10226;SDS011;15634;48.766;2.272;2024-02-28T11:53:05;7.47;;;2.53;;
10226;SDS011;15634;48.766;2.272;2024-02-28T11:55:32;4.57;;;2.55;;
10226;SDS011;15634;48.766;2.272;2024-02-28T11:57:57;6.10;;;2.65;;
10226;SDS011;15634;48.766;2.272;2024-02-28T12:00:23;8.02;;;2.85;;
10226;SDS011;15634;48.766;2.272;2024-02-28T12:02:49;7.47;;;2.90;;
10226;SDS011;15634;48.766;2.272;2024-02-28T12:05:16;5.53;;;2.60;;
10226;SDS011;15634;48.766;2.272;2024-02-28T12:07:42;4.70;;;3.00;;
10226;SDS011;15634;48.766;2.272;2024-02-28T12:10:08;7.57;;;2.85;;
10226;SDS011;15634;48.766;2.272;2024-02-28T12:12:34;7.90;;;3.00;;
10226;SDS011;15634;48.766;2.272;2024-02-28T12:15:01;6.45;;;3.22;;
10226;SDS011;15634;48.766;2.272;2024-02-28T12:17:30;6.50;;;2.78;;
10226;SDS011;15634;48.766;2.272;2024-02-28T12:19:56;7.10;;;3.10;;
10226;SDS011;15634;48.766;2.272;2024-02-28T12:22:24;7.50;;;3.17;;
10226;SDS011;15634;48.766;2.272;2024-02-28T12:24:50;8.07;;;3.15;;
10226;SDS011;15634;48.766;2.272;2024-02-28T12:27:16;6.68;;;2.90;;
10226;SDS011;15634;48.766;2.272;2024-02-28T12:29:42;6.82;;;2.70;;
10226;SDS011;15634;48.766;2.272;2024-02-28T12:32:08;11.75;;;2.92;;
10226;SDS011;15634;48.766;2.272;2024-02-28T12:34:34;6.25;;;2.53;;
10226;SDS011;15634;48.766;2.272;2024-02-28T12:37:00;7.15;;;3.20;;
10226;SDS011;15634;48.766;2.272;2024-02-28T12:39:26;6.00;;;2.97;;
10226;SDS011;15634;48.766;2.272;2024-02-28T12:41:52;9.00;;;3.20;;
10226;SDS011;15634;48.766;2.272;2024-02-28T12:44:19;6.90;;;2.55;;
10226;SDS011;15634;48.766;2.272;2024-02-28T12:46:45;6.28;;;2.55;;
10226;SDS011;15634;48.766;2.272;2024-02-28T12:49:11;6.72;;;2.60;;
10226;SDS011;15634;48.766;2.272;2024-02-28T12:51:40;5.93;;;2.63;;
10226;SDS011;15634;48.766;2.272;2024-02-28T12:54:13;6.43;;;2.50;;
10226;SDS011;15634;48.766;2.272;2024-02-28T12:56:40;5.90;;;2.55;;
10226;SDS011;15634;48.766;2.272;2024-02-28T12:59:12;5.57;;;2.42;;
10226;SDS011;15634;48.766;2.272;2024-02-28T13:01:38;6.75;;;2.40;;
10226;SDS011;15634;48.766;2.272;2024-02-28T13:04:04;6.10;;;2.80;;
10226;SDS011;15634;48.766;2.272;2024-02-28T13:06:31;6.22;;;2.50;;
10226;SDS011;15634;48.766;2.272;2024-02-28T13:08:57;6.47;;;2.45;;
10226;SDS011;15634;48.766;2.272;2024-02-28T13:11:23;8.32;;;2.65;;
10226;SDS011;15634;48.766;2.272;2024-02-28T13:13:49;6.88;;;2.65;;
10226;SDS011;15634;48.766;2.272;2024-02-28T13:16:18;8.73;;;2.58;;
10226;SDS011;15634;48.766;2.272;2024-02-28T13:18:45;6.70;;;2.42;;
10226;SDS011;15634;48.766;2.272;2024-02-28T13:21:11;4.05;;;2.38;;
10226;SDS011;15634;48.766;2.272;2024-02-28T13:23:37;5.18;;;2.40;;
10226;SDS011;15634;48.766;2.272;2024-02-28T13:26:04;4.68;;;2.40;;
10226;SDS011;15634;48.766;2.272;2024-02-28T13:28:30;5.55;;;2.80;;
10226;SDS011;15634;48.766;2.272;2024-02-28T13:30:57;5.82;;;2.60;;
10226;SDS011;15634;48.766;2.272;2024-02-28T13:33:23;6.55;;;2.70;;
10226;SDS011;15634;48.766;2.272;2024-02-28T13:35:49;7.72;;;2.88;;
10226;SDS011;15634;48.766;2.272;2024-02-28T13:38:15;4.78;;;2.30;;
10226;SDS011;15634;48.766;2.272;2024-02-28T13:40:42;5.80;;;2.42;;
10226;SDS011;15634;48.766;2.272;2024-02-28T13:43:09;21.70;;;4.00;;
10226;SDS011;15634;48.766;2.272;2024-02-28T13:45:36;5.13;;;2.20;;
10226;SDS011;15634;48.766;2.272;2024-02-28T13:48:02;6.22;;;2.40;;
10226;SDS011;15634;48.766;2.272;2024-02-28T13:50:28;8.38;;;2.45;;
10226;SDS011;15634;48.766;2.272;2024-02-28T13:52:57;6.15;;;2.20;;
10226;SDS011;15634;48.766;2.272;2024-02-28T13:55:23;5.55;;;2.30;;
10226;SDS011;15634;48.766;2.272;2024-02-28T13:57:49;5.95;;;2.10;;
10226;SDS011;15634;48.766;2.272;2024-02-28T14:00:15;9.52;;;2.88;;
10226;SDS011;15634;48.766;2.272;2024-02-28T14:02:41;5.97;;;2.40;;
10226;SDS011;15634;48.766;2.272;2024-02-28T14:05:07;6.30;;;2.50;;
10226;SDS011;15634;48.766;2.272;2024-02-28T14:07:33;6.20;;;2.55;;
10226;SDS011;15634;48.766;2.272;2024-02-28T14:10:02;6.15;;;2.40;;
10226;SDS011;15634;48.766;2.272;2024-02-28T14:12:28;3.58;;;2.03;;
10226;SDS011;15634;48.766;2.272;2024-02-28T14:14:54;12.35;;;3.70;;
10226;SDS011;15634;48.766;2.272;2024-02-28T14:17:20;8.50;;;2.47;;
10226;SDS011;15634;48.766;2.272;2024-02-28T14:19:47;6.95;;;2.22;;
10226;SDS011;15634;48.766;2.272;2024-02-28T14:22:13;6.60;;;2.20;;
10226;SDS011;15634;48.766;2.272;2024-02-28T14:24:39;7.63;;;2.10;;
10226;SDS011;15634;48.766;2.272;2024-02-28T14:27:05;5.40;;;2.03;;
10226;SDS011;15634;48.766;2.272;2024-02-28T14:29:31;5.45;;;2.10;;
10226;SDS011;15634;48.766;2.272;2024-02-28T14:31:57;4.93;;;1.92;;
10226;SDS011;15634;48.766;2.272;2024-02-28T14:34:25;7.55;;;2.10;;